Time;durP1;ratioP1;P1;durP2;ratioP2;P2;SDS_P1;SDS_P2;PMS_P1;PMS_P2;Temp;Humidity;BMP_temperature;BMP_pressure;BME280_temperature;BME280_humidity;BME280_pressure;Samples;Min_cycle;Max_cycle;Signal;HPM_P1;HPM_P2
2021/10/08 00:02:24;;;;;;;21.65;12.02;;;8.10;98.00;;;;;;5074894;28;20029;-68
2021/10/08 00:04:50;;;;;;;19.10;10.73;;;8.10;98.00;;;;;;5077811;28;20413;-68
2021/10/08 00:07:15;;;;;;;22.38;11.77;;;8.10;98.00;;;;;;5075712;28;20024;-69
2021/10/08 00:09:41;;;;;;;18.88;11.27;;;8.10;98.00;;;;;;5075970;28;20029;-71
2021/10/08 00:12:07;;;;;;;43.65;22.92;;;8.10;98.00;;;;;;5074168;28;20089;-70
2021/10/08 00:14:33;;;;;;;40.15;20.67;;;8.10;98.00;;;;;;5076131;28;20107;-73
2021/10/08 00:16:59;;;;;;;36.83;19.15;;;8.10;98.00;;;;;;5077408;28;20032;-70
2021/10/08 00:19:24;;;;;;;28.92;15.98;;;8.10;98.00;;;;;;5068510;28;20048;-70
2021/10/08 00:21:53;;;;;;;13.20;8.05;;;8.10;98.00;;;;;;5074353;28;20738;-70
2021/10/08 00:24:24;;;;;;;19.35;9.30;;;8.10;98.00;;;;;;5073041;28;20032;-70
2021/10/08 00:26:50;;;;;;;12.45;6.95;;;8.10;98.00;;;;;;5066731;28;20036;-70
2021/10/08 00:29:16;;;;;;;10.75;6.43;;;8.20;98.00;;;;;;5070197;28;20095;-70
2021/10/08 00:31:41;;;;;;;10.75;6.20;;;8.20;98.00;;;;;;5068947;28;20024;-70
2021/10/08 00:34:10;;;;;;;10.55;5.63;;;8.20;98.00;;;;;;5076954;28;20027;-70
2021/10/08 00:36:35;;;;;;;24.38;11.95;;;8.10;98.00;;;;;;5075556;28;20029;-69
2021/10/08 00:39:02;;;;;;;12.18;7.25;;;8.00;98.00;;;;;;5076838;28;20013;-70
2021/10/08 00:41:28;;;;;;;12.40;7.15;;;7.90;98.00;;;;;;5073399;28;20433;-69
2021/10/08 00:43:54;;;;;;;11.65;7.00;;;7.90;98.00;;;;;;5074456;28;20029;-72
2021/10/08 00:46:20;;;;;;;11.13;7.28;;;7.90;98.00;;;;;;5076829;28;20028;-70
2021/10/08 00:48:55;;;;;;;9.45;6.72;;;7.90;98.00;;;;;;5072323;28;20082;-70
2021/10/08 00:51:23;;;;;;;11.32;6.95;;;7.90;98.00;;;;;;5075609;28;20047;-70
2021/10/08 00:53:49;;;;;;;13.77;8.20;;;7.90;98.00;;;;;;5073108;28;20070;-71
2021/10/08 00:56:18;;;;;;;12.13;7.82;;;7.90;98.00;;;;;;5076295;28;20028;-71
2021/10/08 00:58:44;;;;;;;12.80;7.95;;;7.90;98.00;;;;;;5076068;28;20024;-71
2021/10/08 01:01:13;;;;;;;12.40;7.57;;;8.00;97.90;;;;;;5076380;28;20028;-69
2021/10/08 01:03:39;;;;;;;16.27;7.97;;;8.10;97.90;;;;;;5068679;28;20060;-70
2021/10/08 01:06:05;;;;;;;11.07;7.18;;;8.10;98.00;;;;;;5075311;28;20047;-70
2021/10/08 01:08:31;;;;;;;14.95;7.45;;;8.10;97.80;;;;;;5075442;28;20036;-70
2021/10/08 01:10:56;;;;;;;10.00;7.07;;;8.20;98.00;;;;;;5072522;28;20029;-71
2021/10/08 01:13:22;;;;;;;10.80;7.10;;;8.20;98.00;;;;;;5070222;28;20024;-71
2021/10/08 01:15:48;;;;;;;9.75;7.13;;;8.20;98.00;;;;;;5075489;28;20033;-71
2021/10/08 01:18:13;;;;;;;15.20;7.20;;;8.30;98.00;;;;;;5075755;28;20094;-70
2021/10/08 01:20:40;;;;;;;10.00;6.80;;;8.30;98.00;;;;;;5073583;28;20028;-71
2021/10/08 01:23:05;;;;;;;12.52;6.38;;;8.40;98.00;;;;;;5067613;28;20036;-71
2021/10/08 01:25:33;;;;;;;10.35;6.22;;;8.40;98.00;;;;;;5074599;28;20496;-71
2021/10/08 01:28:03;;;;;;;9.00;6.28;;;8.30;98.00;;;;;;5075075;28;20089;-70
2021/10/08 01:30:29;;;;;;;12.90;6.75;;;8.30;98.00;;;;;;5071643;28;20059;-70
2021/10/08 01:32:55;;;;;;;11.18;6.60;;;8.10;98.00;;;;;;5073289;28;20064;-70
2021/10/08 01:35:21;;;;;;;11.40;6.45;;;8.10;98.00;;;;;;5074724;28;20103;-71
2021/10/08 01:37:50;;;;;;;9.25;5.32;;;8.00;98.00;;;;;;5071514;28;20409;-70
2021/10/08 01:40:19;;;;;;;9.85;4.93;;;7.80;98.00;;;;;;5073906;28;20033;-70
2021/10/08 01:42:45;;;;;;;10.77;6.00;;;7.80;98.00;;;;;;5071558;28;20032;-71
2021/10/08 01:45:12;;;;;;;9.65;5.20;;;7.60;98.00;;;;;;5073200;28;20116;-71
2021/10/08 01:47:38;;;;;;;11.10;6.45;;;7.30;98.00;;;;;;5072686;28;20341;-71
2021/10/08 01:50:05;;;;;;;11.43;6.65;;;7.20;98.00;;;;;;5075378;28;20021;-70
2021/10/08 01:52:31;;;;;;;11.23;6.85;;;7.10;97.80;;;;;;5070803;28;20036;-71
2021/10/08 01:54:57;;;;;;;11.43;5.90;;;6.80;97.60;;;;;;5073398;28;20334;-69
2021/10/08 01:57:25;;;;;;;9.60;6.18;;;6.70;97.50;;;;;;5075254;28;20421;-70
2021/10/08 01:59:51;;;;;;;9.93;6.22;;;6.70;97.00;;;;;;5071648;28;20036;-70
2021/10/08 02:02:17;;;;;;;14.70;7.03;;;6.70;96.80;;;;;;5071078;28;20024;-70
2021/10/08 02:04:43;;;;;;;11.75;6.60;;;6.60;97.10;;;;;;5073151;28;20115;-71
2021/10/08 02:07:09;;;;;;;8.88;5.75;;;6.50;97.20;;;;;;5071270;28;20043;-70
2021/10/08 02:09:35;;;;;;;9.77;5.70;;;6.40;97.10;;;;;;5072737;28;20028;-71
2021/10/08 02:12:00;;;;;;;10.00;5.50;;;6.30;96.90;;;;;;5075271;28;20024;-70
2021/10/08 02:14:26;;;;;;;9.77;5.80;;;6.20;96.20;;;;;;5073768;28;20421;-69
2021/10/08 02:16:54;;;;;;;7.63;5.13;;;6.10;96.60;;;;;;5068899;28;20051;-70
2021/10/08 02:19:19;;;;;;;9.98;5.43;;;6.10;95.70;;;;;;5072731;28;20044;-70
2021/10/08 02:21:45;;;;;;;11.68;6.53;;;6.20;95.90;;;;;;5071197;28;20119;-70
2021/10/08 02:24:11;;;;;;;11.35;6.13;;;6.20;96.00;;;;;;5066097;28;20028;-71
2021/10/08 02:26:42;;;;;;;11.32;5.45;;;6.10;96.20;;;;;;5070391;28;20044;-71
2021/10/08 02:29:07;;;;;;;11.32;5.45;;;6.00;96.20;;;;;;5069110;28;20024;-70
2021/10/08 02:31:33;;;;;;;8.57;5.35;;;5.80;95.50;;;;;;5072453;28;20404;-70
2021/10/08 02:34:00;;;;;;;14.10;6.60;;;5.80;95.10;;;;;;5073176;28;20324;-71
2021/10/08 02:36:25;;;;;;;13.85;6.30;;;5.80;95.80;;;;;;5073111;28;20029;-69
2021/10/08 02:38:51;;;;;;;10.85;6.80;;;5.70;95.20;;;;;;5060672;28;20405;-71
2021/10/08 02:41:17;;;;;;;13.38;7.05;;;5.70;94.80;;;;;;5073207;28;20024;-70
2021/10/08 02:43:42;;;;;;;15.93;7.40;;;5.70;95.10;;;;;;5069551;28;20047;-70
2021/10/08 02:46:08;;;;;;;13.68;7.10;;;5.60;94.90;;;;;;5072398;28;20036;-72
2021/10/08 02:48:35;;;;;;;10.80;6.63;;;5.60;94.60;;;;;;5074167;28;20029;-70
2021/10/08 02:51:00;;;;;;;14.38;7.93;;;5.60;94.10;;;;;;5074379;28;20074;-71
2021/10/08 02:53:26;;;;;;;13.15;6.90;;;5.60;94.20;;;;;;5072360;28;20032;-68
2021/10/08 02:55:52;;;;;;;16.10;7.53;;;5.60;94.10;;;;;;5069317;28;20436;-69
2021/10/08 02:58:17;;;;;;;10.45;6.85;;;5.60;94.10;;;;;;5068859;28;20021;-68
2021/10/08 03:00:46;;;;;;;11.77;7.00;;;5.50;93.80;;;;;;5067153;28;20279;-68
2021/10/08 03:03:11;;;;;;;13.63;7.68;;;5.60;93.20;;;;;;5072422;28;20056;-68
2021/10/08 03:05:37;;;;;;;13.95;7.95;;;5.70;92.30;;;;;;5072220;28;20055;-70
2021/10/08 03:08:03;;;;;;;16.05;7.93;;;5.80;92.70;;;;;;5071547;28;20024;-69
2021/10/08 03:10:29;;;;;;;12.25;6.57;;;5.80;93.50;;;;;;5074637;28;20028;-70
2021/10/08 03:12:55;;;;;;;9.73;6.03;;;5.70;94.20;;;;;;5069941;28;20039;-70
2021/10/08 03:15:27;;;;;;;11.43;7.28;;;5.60;93.50;;;;;;5072954;28;20031;-69
2021/10/08 03:17:52;;;;;;;12.25;6.55;;;5.40;94.20;;;;;;5073136;28;20093;-70
2021/10/08 03:20:19;;;;;;;10.48;6.05;;;5.40;93.60;;;;;;5061878;28;20024;-72
2021/10/08 03:22:45;;;;;;;16.35;7.43;;;5.30;92.90;;;;;;5069489;28;20486;-70
2021/10/08 03:25:10;;;;;;;10.40;6.53;;;5.30;93.90;;;;;;5072096;28;20040;-70
2021/10/08 03:27:36;;;;;;;17.92;8.68;;;5.20;93.90;;;;;;5077807;28;20329;-69
2021/10/08 03:30:05;;;;;;;11.13;6.47;;;5.10;94.40;;;;;;5077637;28;20043;-70
2021/10/08 03:32:31;;;;;;;9.90;6.03;;;5.00;94.10;;;;;;5074497;28;20029;-69
2021/10/08 03:34:56;;;;;;;15.88;7.10;;;5.00;93.00;;;;;;5077010;28;20345;-70
2021/10/08 03:37:32;;;;;;;12.43;6.30;;;5.00;93.70;;;;;;5075257;28;20095;-70
2021/10/08 03:39:57;;;;;;;11.18;6.30;;;4.90;93.30;;;;;;5077220;28;20513;-70
2021/10/08 03:42:23;;;;;;;15.30;8.55;;;4.90;92.80;;;;;;5077966;28;20103;-70
2021/10/08 03:45:03;;;;;;;11.05;6.70;;;4.90;92.80;;;;;;5073136;28;20057;-70
2021/10/08 03:47:41;;;;;;;12.10;6.53;;;5.00;92.80;;;;;;5074275;28;20036;-71
2021/10/08 03:50:08;;;;;;;10.60;6.60;;;5.00;93.30;;;;;;5071027;28;20086;-71
2021/10/08 03:52:34;;;;;;;14.07;7.57;;;5.00;94.20;;;;;;5073903;28;20035;-71
2021/10/08 03:55:00;;;;;;;13.80;8.75;;;4.90;93.70;;;;;;5071993;28;20388;-70
2021/10/08 03:57:25;;;;;;;17.70;9.35;;;4.90;93.00;;;;;;5075849;28;20433;-70
2021/10/08 03:59:51;;;;;;;14.13;8.60;;;4.90;93.20;;;;;;5068225;28;20027;-70
2021/10/08 04:02:17;;;;;;;16.75;9.57;;;4.90;93.00;;;;;;5071823;28;20078;-71
2021/10/08 04:04:42;;;;;;;14.95;8.45;;;4.90;92.60;;;;;;5077257;28;20099;-70
2021/10/08 04:07:08;;;;;;;12.68;7.03;;;4.90;93.00;;;;;;5076572;28;20037;-69
2021/10/08 04:09:33;;;;;;;12.80;8.27;;;4.90;92.60;;;;;;5072809;28;20101;-70
2021/10/08 04:11:59;;;;;;;17.02;11.57;;;5.00;91.50;;;;;;5077585;28;20030;-70
2021/10/08 04:14:25;;;;;;;14.20;8.32;;;5.10;91.80;;;;;;5077965;28;20055;-71
2021/10/08 04:16:50;;;;;;;15.90;8.63;;;5.10;92.40;;;;;;5075829;28;20021;-70
2021/10/08 04:19:16;;;;;;;21.88;10.75;;;5.00;93.30;;;;;;5078055;28;20049;-70
2021/10/08 04:21:43;;;;;;;15.23;8.90;;;4.90;92.20;;;;;;5073561;28;20039;-70
2021/10/08 04:24:08;;;;;;;15.85;10.27;;;4.90;91.60;;;;;;5074274;28;20092;-70
2021/10/08 04:26:34;;;;;;;25.50;11.27;;;5.00;91.20;;;;;;5071397;28;20381;-70
2021/10/08 04:29:00;;;;;;;21.63;10.68;;;5.10;91.80;;;;;;5067902;28;20321;-69
2021/10/08 04:31:25;;;;;;;14.95;8.93;;;5.10;92.30;;;;;;5068832;28;20028;-71
2021/10/08 04:33:51;;;;;;;27.98;18.10;;;5.10;91.60;;;;;;5067776;28;20035;-71
2021/10/08 04:36:17;;;;;;;25.88;16.40;;;5.10;91.80;;;;;;5065106;28;20016;-71
2021/10/08 04:38:43;;;;;;;20.67;13.05;;;5.30;90.50;;;;;;5070270;28;20432;-71
2021/10/08 04:41:08;;;;;;;25.50;14.98;;;5.40;90.30;;;;;;5065429;28;20029;-70
2021/10/08 04:43:34;;;;;;;24.52;14.23;;;5.60;89.80;;;;;;5065157;28;20028;-70
2021/10/08 04:45:59;;;;;;;18.33;12.10;;;5.70;91.00;;;;;;5062734;28;20151;-70
2021/10/08 04:48:25;;;;;;;18.50;10.52;;;5.70;91.00;;;;;;5075416;28;20043;-69
2021/10/08 04:50:51;;;;;;;15.48;10.05;;;5.70;91.50;;;;;;5066723;28;20029;-70
2021/10/08 04:53:19;;;;;;;17.55;11.07;;;5.60;91.80;;;;;;5068762;28;20109;-69
2021/10/08 04:55:45;;;;;;;21.42;10.88;;;5.60;92.00;;;;;;5072841;28;20398;-70
2021/10/08 04:58:11;;;;;;;16.95;10.00;;;5.50;91.30;;;;;;5066686;28;20070;-70
2021/10/08 05:00:38;;;;;;;21.45;12.25;;;5.40;91.40;;;;;;5061474;28;20044;-68
2021/10/08 05:03:08;;;;;;;19.40;11.43;;;5.50;90.50;;;;;;5065877;28;20512;-71
2021/10/08 05:05:34;;;;;;;16.13;9.38;;;5.60;90.90;;;;;;5072187;28;20382;-70
2021/10/08 05:08:03;;;;;;;21.98;11.85;;;5.60;90.80;;;;;;5064807;28;20060;-69
2021/10/08 05:10:32;;;;;;;24.52;12.63;;;5.60;90.90;;;;;;5074119;28;20048;-70
2021/10/08 05:12:59;;;;;;;19.35;11.10;;;5.60;90.90;;;;;;5072001;28;20035;-70
2021/10/08 05:15:24;;;;;;;15.52;9.63;;;5.50;91.00;;;;;;5070724;28;20021;-70
2021/10/08 05:17:50;;;;;;;18.45;9.95;;;5.50;91.50;;;;;;5069759;28;20106;-70
2021/10/08 05:20:16;;;;;;;14.35;9.13;;;5.50;90.50;;;;;;5076300;28;20108;-70
2021/10/08 05:22:42;;;;;;;14.02;9.30;;;5.60;90.20;;;;;;5073658;28;20033;-70
2021/10/08 05:25:10;;;;;;;17.25;10.60;;;5.70;90.30;;;;;;5075683;28;20020;-70
2021/10/08 05:27:39;;;;;;;16.27;10.55;;;5.70;90.50;;;;;;5073095;28;20412;-70
2021/10/08 05:30:05;;;;;;;18.85;11.75;;;5.80;90.80;;;;;;5076807;28;20028;-68
2021/10/08 05:32:31;;;;;;;21.60;11.40;;;5.80;90.50;;;;;;5075785;28;20388;-69
2021/10/08 05:34:57;;;;;;;27.02;16.00;;;5.80;90.80;;;;;;5077063;28;20052;-70
2021/10/08 05:37:22;;;;;;;20.15;11.90;;;5.80;90.50;;;;;;5073330;28;20745;-70
2021/10/08 05:39:48;;;;;;;23.35;13.43;;;5.80;90.70;;;;;;5074271;28;20035;-70
2021/10/08 05:42:17;;;;;;;25.02;14.98;;;5.80;90.70;;;;;;5075894;28;20024;-70
2021/10/08 05:44:42;;;;;;;28.75;18.23;;;5.90;89.90;;;;;;5075194;28;20326;-70
2021/10/08 05:47:08;;;;;;;32.00;18.20;;;6.10;89.70;;;;;;5075306;28;20132;-70
2021/10/08 05:49:37;;;;;;;73.63;44.20;;;6.20;89.80;;;;;;5076842;28;20020;-69
2021/10/08 05:52:03;;;;;;;28.27;19.10;;;6.20;89.70;;;;;;5073784;28;20053;-69
2021/10/08 05:54:28;;;;;;;37.00;21.92;;;6.30;89.30;;;;;;5072768;28;20056;-69
2021/10/08 05:56:54;;;;;;;60.75;26.98;;;6.50;88.90;;;;;;5075742;28;20028;-68
2021/10/08 05:59:22;;;;;;;61.33;31.08;;;6.60;89.40;;;;;;5069710;28;20368;-70
2021/10/08 06:01:48;;;;;;;34.15;21.85;;;6.70;89.20;;;;;;5068894;28;20032;-71
2021/10/08 06:04:14;;;;;;;44.25;23.75;;;6.80;88.70;;;;;;5068670;28;20028;-70
2021/10/08 06:06:39;;;;;;;34.15;21.60;;;6.90;89.30;;;;;;5071237;28;20035;-71
2021/10/08 06:09:08;;;;;;;49.00;26.00;;;7.00;88.80;;;;;;5070439;28;20120;-71
2021/10/08 06:11:33;;;;;;;32.60;21.55;;;7.00;89.00;;;;;;5071544;28;20033;-70
2021/10/08 06:13:59;;;;;;;38.33;21.98;;;7.10;88.70;;;;;;5069176;28;20337;-70
2021/10/08 06:16:25;;;;;;;46.88;23.88;;;7.30;88.50;;;;;;5070589;28;20029;-70
2021/10/08 06:18:51;;;;;;;38.47;22.90;;;7.40;88.60;;;;;;5073612;28;20048;-70
2021/10/08 06:21:17;;;;;;;37.22;21.88;;;7.40;89.10;;;;;;5068359;28;20032;-69
2021/10/08 06:23:43;;;;;;;37.88;23.20;;;7.40;88.90;;;;;;5073346;28;20429;-69
2021/10/08 06:26:08;;;;;;;31.92;21.58;;;7.50;89.00;;;;;;5075397;28;20036;-71
2021/10/08 06:28:34;;;;;;;32.95;20.88;;;7.50;88.90;;;;;;5072953;28;20040;-70
2021/10/08 06:31:00;;;;;;;43.40;23.35;;;7.70;88.40;;;;;;5075062;28;20413;-70
2021/10/08 06:33:25;;;;;;;32.13;20.58;;;7.70;89.00;;;;;;5076074;28;20029;-72
2021/10/08 06:35:51;;;;;;;36.17;22.00;;;7.70;89.00;;;;;;5075139;28;20028;-70
2021/10/08 06:38:17;;;;;;;27.33;18.52;;;7.80;88.80;;;;;;5072663;28;20032;-72
2021/10/08 06:40:43;;;;;;;28.02;20.08;;;7.90;88.20;;;;;;5074234;28;20052;-70
2021/10/08 06:43:09;;;;;;;32.63;20.35;;;8.00;89.10;;;;;;5075255;28;20029;-71
2021/10/08 06:45:36;;;;;;;33.05;21.23;;;8.10;88.60;;;;;;5072889;28;20032;-70
2021/10/08 06:48:02;;;;;;;32.08;20.20;;;8.20;88.70;;;;;;5075782;28;20055;-70
2021/10/08 06:50:28;;;;;;;34.92;20.98;;;8.20;88.90;;;;;;5074394;28;20040;-70
2021/10/08 06:52:54;;;;;;;28.48;19.70;;;8.20;88.90;;;;;;5073543;28;20330;-71
2021/10/08 06:55:20;;;;;;;32.55;20.05;;;8.20;89.00;;;;;;5074523;28;20119;-70
2021/10/08 06:57:45;;;;;;;29.48;19.98;;;8.40;88.50;;;;;;5075873;28;20035;-72
2021/10/08 07:00:11;;;;;;;28.45;19.02;;;8.50;89.00;;;;;;5072782;28;20020;-70
2021/10/08 07:02:47;;;;;;;28.45;19.02;;;8.70;88.20;;;;;;5074648;28;20448;-70
2021/10/08 07:05:13;;;;;;;30.00;20.17;;;8.90;88.10;;;;;;5073554;28;20035;-70
2021/10/08 07:07:38;;;;;;;27.60;17.90;;;9.00;89.30;;;;;;5074668;28;20017;-71
2021/10/08 07:10:04;;;;;;;26.80;17.73;;;9.20;88.30;;;;;;5074147;28;20107;-70
2021/10/08 07:12:30;;;;;;;29.67;20.60;;;9.30;89.00;;;;;;5075582;28;20032;-70
2021/10/08 07:14:56;;;;;;;22.75;16.25;;;9.50;89.60;;;;;;5075148;28;20536;-70
2021/10/08 07:17:24;;;;;;;23.58;16.10;;;9.30;92.50;;;;;;5074691;28;20025;-71
2021/10/08 07:19:51;;;;;;;24.42;16.83;;;9.30;92.70;;;;;;5075508;28;20044;-71
2021/10/08 07:22:17;;;;;;;23.92;17.10;;;9.40;92.40;;;;;;5071781;28;20036;-69
2021/10/08 07:24:43;;;;;;;23.85;16.08;;;9.40;94.70;;;;;;5069108;28;20029;-70
2021/10/08 07:27:12;;;;;;;24.38;17.15;;;9.40;95.50;;;;;;5073926;28;20024;-71
2021/10/08 07:29:38;;;;;;;20.00;14.85;;;9.40;96.10;;;;;;5074572;28;20294;-71
2021/10/08 07:32:05;;;;;;;25.20;17.83;;;9.40;96.70;;;;;;5072730;28;20086;-71
2021/10/08 07:34:31;;;;;;;24.02;17.08;;;9.40;97.50;;;;;;5074297;28;20322;-71
2021/10/08 07:36:57;;;;;;;23.95;16.92;;;9.50;97.90;;;;;;5074467;28;20050;-71
2021/10/08 07:39:23;;;;;;;28.13;18.02;;;9.70;98.00;;;;;;5073118;28;20082;-70
2021/10/08 07:41:49;;;;;;;27.90;19.75;;;9.70;98.00;;;;;;5063758;28;20029;-70
2021/10/08 07:44:15;;;;;;;30.83;19.45;;;9.60;98.00;;;;;;5069399;28;20115;-70
2021/10/08 07:46:40;;;;;;;24.23;17.92;;;9.50;98.00;;;;;;5061121;28;20028;-71
2021/10/08 07:49:06;;;;;;;25.60;17.95;;;9.50;98.00;;;;;;5056863;28;20025;-71
2021/10/08 07:51:32;;;;;;;25.00;18.13;;;9.60;98.00;;;;;;5075281;28;20078;-70
2021/10/08 07:53:58;;;;;;;26.13;17.92;;;9.80;98.00;;;;;;5063239;28;20029;-70
2021/10/08 07:56:25;;;;;;;24.73;17.50;;;10.00;98.00;;;;;;5074049;28;20391;-70
2021/10/08 07:58:53;;;;;;;25.10;18.13;;;10.10;98.00;;;;;;5075161;28;20028;-69
2021/10/08 08:01:19;;;;;;;24.65;16.92;;;10.30;98.00;;;;;;5070937;28;20059;-70
2021/10/08 08:03:44;;;;;;;21.65;16.40;;;10.50;98.00;;;;;;5073420;28;20028;-70
2021/10/08 08:06:11;;;;;;;19.92;14.80;;;10.70;98.00;;;;;;5053884;28;20029;-72
2021/10/08 08:08:37;;;;;;;22.17;14.93;;;11.10;98.00;;;;;;5065272;28;20032;-70
2021/10/08 08:11:02;;;;;;;20.83;16.02;;;11.40;98.00;;;;;;5075027;28;20325;-70
2021/10/08 08:13:28;;;;;;;19.95;14.50;;;11.70;98.00;;;;;;5074231;28;20040;-71
2021/10/08 08:15:54;;;;;;;21.30;13.43;;;12.20;98.00;;;;;;5074133;28;20021;-70
2021/10/08 08:18:19;;;;;;;18.15;13.27;;;13.30;97.50;;;;;;5077285;28;20441;-71
2021/10/08 08:20:45;;;;;;;18.33;13.52;;;14.20;94.70;;;;;;5077616;28;20040;-71
2021/10/08 08:23:13;;;;;;;18.85;13.20;;;13.90;93.40;;;;;;5077455;28;20325;-71
2021/10/08 08:25:39;;;;;;;19.67;13.77;;;13.40;95.00;;;;;;5078248;28;20052;-70
2021/10/08 08:28:05;;;;;;;16.90;12.85;;;13.20;95.50;;;;;;5078676;28;20064;-71
2021/10/08 08:30:38;;;;;;;18.98;13.57;;;12.90;96.50;;;;;;5077867;28;20037;-71
2021/10/08 08:33:03;;;;;;;18.10;13.00;;;13.20;96.50;;;;;;5078412;28;20021;-71
2021/10/08 08:35:29;;;;;;;17.25;13.90;;;13.90;94.40;;;;;;5078034;28;20024;-69
2021/10/08 08:37:54;;;;;;;15.77;12.50;;;14.20;92.50;;;;;;5077128;28;20032;-69
2021/10/08 08:40:21;;;;;;;14.20;10.73;;;14.20;92.90;;;;;;5078127;28;20360;-71
2021/10/08 08:42:46;;;;;;;14.70;10.02;;;14.50;92.40;;;;;;5076975;28;20033;-70
2021/10/08 08:45:12;;;;;;;14.88;10.75;;;14.80;92.10;;;;;;5058350;28;20086;-69
2021/10/08 08:47:41;;;;;;;17.35;12.55;;;14.90;90.40;;;;;;5077474;28;20028;-69
2021/10/08 08:50:13;;;;;;;18.75;13.10;;;14.70;90.90;;;;;;5076953;28;20016;-69
2021/10/08 08:52:39;;;;;;;15.68;11.98;;;14.00;92.40;;;;;;5075246;28;20334;-69
2021/10/08 08:55:05;;;;;;;17.05;12.55;;;13.80;93.40;;;;;;5077801;28;20031;-71
2021/10/08 08:57:31;;;;;;;23.23;13.98;;;13.80;94.10;;;;;;5077579;28;20329;-71
2021/10/08 09:00:13;;;;;;;20.88;14.68;;;13.80;94.20;;;;;;5077710;28;20127;-71
2021/10/08 09:02:40;;;;;;;18.85;14.05;;;13.40;94.30;;;;;;5073532;28;20094;-71
2021/10/08 09:05:25;;;;;;;20.15;13.90;;;13.10;95.50;;;;;;5077748;28;20103;-70
2021/10/08 09:07:58;;;;;;;19.13;14.43;;;13.10;96.00;;;;;;5076335;28;20040;-70
2021/10/08 09:10:26;;;;;;;18.38;13.75;;;13.00;96.00;;;;;;5076050;28;20028;-70
2021/10/08 09:12:56;;;;;;;20.80;15.65;;;13.00;96.70;;;;;;5074987;28;20060;-71
2021/10/08 09:15:30;;;;;;;18.60;13.60;;;13.00;96.00;;;;;;5075755;28;20126;-71
2021/10/08 09:18:13;;;;;;;21.63;15.18;;;13.00;96.70;;;;;;5065700;28;20044;-71
2021/10/08 09:21:00;;;;;;;25.63;15.43;;;13.10;96.10;;;;;;5067920;28;20103;-70
2021/10/08 09:23:38;;;;;;;20.77;14.07;;;13.10;96.40;;;;;;5075802;28;20036;-71
2021/10/08 09:26:12;;;;;;;19.10;13.40;;;13.30;96.80;;;;;;5077340;28;20115;-71
2021/10/08 09:29:16;;;;;;;18.95;13.45;;;13.50;95.70;;;;;;5076154;28;20421;-70
2021/10/08 09:31:43;;;;;;;16.67;12.75;;;13.80;95.00;;;;;;5038855;28;20442;-71
2021/10/08 09:34:30;;;;;;;20.70;12.93;;;14.10;94.20;;;;;;5056296;28;20075;-70
2021/10/08 09:37:05;;;;;;;18.83;13.00;;;14.40;93.40;;;;;;5058682;28;20025;-71
2021/10/08 09:39:33;;;;;;;21.33;13.07;;;14.40;92.70;;;;;;5071247;28;20097;-70
2021/10/08 09:42:08;;;;;;;18.33;14.07;;;14.00;93.50;;;;;;5077019;28;20020;-71
2021/10/08 09:44:54;;;;;;;19.60;14.50;;;13.60;94.80;;;;;;5076669;28;20085;-70
2021/10/08 09:47:24;;;;;;;21.13;13.98;;;13.30;95.50;;;;;;5077107;28;20070;-71
2021/10/08 09:49:52;;;;;;;23.67;14.43;;;12.80;96.50;;;;;;5076476;28;20551;-70
2021/10/08 09:52:29;;;;;;;19.63;13.27;;;12.70;96.90;;;;;;5074949;28;20040;-70
2021/10/08 09:54:56;;;;;;;19.13;13.80;;;12.70;97.00;;;;;;5075752;28;20078;-71
2021/10/08 09:57:26;;;;;;;19.77;13.70;;;12.80;97.10;;;;;;5075137;28;20059;-71
2021/10/08 09:59:53;;;;;;;18.33;13.00;;;13.10;97.30;;;;;;5072753;28;20351;-71
2021/10/08 10:02:19;;;;;;;15.95;11.95;;;13.60;96.20;;;;;;5057885;28;20025;-70
2021/10/08 10:04:54;;;;;;;17.33;11.50;;;14.10;95.20;;;;;;5066676;28;20064;-71
2021/10/08 10:07:23;;;;;;;16.42;12.10;;;14.60;93.00;;;;;;5075617;28;20401;-71
2021/10/08 10:09:50;;;;;;;16.70;12.15;;;14.80;91.80;;;;;;5072591;28;20432;-71
2021/10/08 10:12:19;;;;;;;16.98;12.35;;;14.80;92.60;;;;;;5056648;28;20036;-71
2021/10/08 10:14:46;;;;;;;18.38;12.95;;;14.40;92.70;;;;;;5066374;28;20024;-71
2021/10/08 10:17:14;;;;;;;19.40;12.98;;;14.10;93.40;;;;;;5075988;28;20432;-71
2021/10/08 10:19:47;;;;;;;20.10;13.80;;;14.00;94.40;;;;;;5073751;28;20039;-71
2021/10/08 10:22:20;;;;;;;20.45;13.57;;;13.80;94.00;;;;;;5075285;28;20025;-70
2021/10/08 10:24:47;;;;;;;16.33;12.75;;;13.40;95.20;;;;;;5075377;28;20039;-71
2021/10/08 10:27:15;;;;;;;19.25;12.45;;;13.40;95.60;;;;;;5076320;28;20459;-71
2021/10/08 10:29:43;;;;;;;18.63;12.98;;;13.60;95.30;;;;;;5074536;28;20060;-68
2021/10/08 10:32:10;;;;;;;17.25;11.68;;;13.70;95.50;;;;;;5065108;28;20448;-68
2021/10/08 10:34:37;;;;;;;19.83;12.63;;;14.10;94.60;;;;;;5071844;28;20035;-69
2021/10/08 10:37:04;;;;;;;16.88;12.27;;;14.20;94.10;;;;;;5064457;28;20035;-69
2021/10/08 10:39:30;;;;;;;20.75;12.15;;;14.50;93.40;;;;;;5071302;28;20402;-69
2021/10/08 10:42:02;;;;;;;17.58;11.93;;;14.50;93.40;;;;;;5071576;28;20036;-68
2021/10/08 10:44:34;;;;;;;13.27;10.25;;;14.40;93.30;;;;;;5061550;28;20418;-70
2021/10/08 10:47:23;;;;;;;15.98;11.23;;;14.50;93.70;;;;;;5061305;28;20479;-70
2021/10/08 10:50:27;;;;;;;20.30;13.55;;;14.60;93.40;;;;;;5070236;28;20038;-70
2021/10/08 10:52:55;;;;;;;19.17;12.15;;;14.50;92.10;;;;;;5060696;28;20513;-70
2021/10/08 10:55:23;;;;;;;21.35;11.88;;;14.50;92.10;;;;;;5073181;28;20020;-69
2021/10/08 10:57:58;;;;;;;17.85;11.90;;;14.50;93.50;;;;;;5066409;28;20029;-69
2021/10/08 11:00:37;;;;;;;16.20;11.40;;;14.90;93.10;;;;;;5055508;28;20020;-69
2021/10/08 11:03:07;;;;;;;17.42;10.40;;;15.50;91.30;;;;;;5071267;28;20429;-69
2021/10/08 11:05:37;;;;;;;14.48;10.27;;;16.30;88.80;;;;;;5064220;28;20020;-67
2021/10/08 11:08:06;;;;;;;17.27;11.05;;;16.50;88.80;;;;;;5067313;28;20029;-68
2021/10/08 11:10:33;;;;;;;16.23;11.10;;;16.50;87.40;;;;;;5061693;28;20325;-68
2021/10/08 11:13:26;;;;;;;14.63;9.98;;;16.20;87.80;;;;;;5062186;28;20078;-68
2021/10/08 11:15:58;;;;;;;16.10;10.77;;;16.10;89.40;;;;;;5065097;28;20036;-68
2021/10/08 11:18:50;;;;;;;15.73;11.18;;;16.30;88.40;;;;;;5074083;28;20039;-68
2021/10/08 11:21:31;;;;;;;18.80;11.15;;;16.30;88.10;;;;;;5074837;28;20039;-67
2021/10/08 11:24:12;;;;;;;16.25;10.73;;;16.10;89.50;;;;;;5060059;28;20024;-67
2021/10/08 11:27:03;;;;;;;16.60;11.52;;;16.20;89.80;;;;;;5065090;28;20032;-67
2021/10/08 11:29:31;;;;;;;17.25;9.90;;;15.90;88.60;;;;;;5057102;28;20067;-67
2021/10/08 11:32:09;;;;;;;19.42;11.20;;;15.70;90.30;;;;;;5069315;28;20503;-67
2021/10/08 11:34:52;;;;;;;15.20;11.13;;;15.70;90.10;;;;;;5074439;28;20033;-67
2021/10/08 11:37:20;;;;;;;15.70;11.32;;;15.60;89.70;;;;;;5073401;28;20055;-68
2021/10/08 11:39:47;;;;;;;14.30;9.52;;;15.10;91.40;;;;;;5063959;28;20032;-67
2021/10/08 11:42:17;;;;;;;16.90;11.32;;;15.00;92.10;;;;;;5072177;28;20024;-67
2021/10/08 11:45:07;;;;;;;16.95;11.38;;;15.10;92.20;;;;;;5069570;28;20211;-67
2021/10/08 11:52:56;;;;;;;18.25;10.60;;;14.70;92.90;;;;;;5061039;28;20074;-67
2021/10/08 11:55:26;;;;;;;17.33;11.20;;;14.50;93.20;;;;;;5078682;28;20052;-69
2021/10/08 11:58:00;;;;;;;20.40;11.82;;;14.30;94.40;;;;;;5078147;28;20025;-69
2021/10/08 12:00:41;;;;;;;19.95;12.18;;;14.20;95.30;;;;;;5077125;28;20020;-72
2021/10/08 12:03:12;;;;;;;19.58;11.35;;;14.10;95.10;;;;;;5077930;28;20425;-69
2021/10/08 12:05:47;;;;;;;20.38;11.48;;;14.20;95.40;;;;;;5078655;28;20409;-69
2021/10/08 12:08:16;;;;;;;18.58;11.60;;;14.00;95.30;;;;;;5057701;28;20110;-69
2021/10/08 12:11:07;;;;;;;14.98;10.40;;;14.00;95.70;;;;;;5061274;28;20032;-69
2021/10/08 12:13:54;;;;;;;20.27;11.40;;;13.90;95.90;;;;;;5058887;28;20035;-70
2021/10/08 12:16:46;;;;;;;21.33;11.55;;;13.80;96.40;;;;;;5064664;28;20024;-69
2021/10/08 12:19:13;;;;;;;16.83;12.00;;;13.50;96.40;;;;;;5063440;28;20055;-70
2021/10/08 12:21:40;;;;;;;19.98;12.32;;;13.30;96.70;;;;;;5058788;28;20032;-71
2021/10/08 12:24:07;;;;;;;19.58;12.77;;;13.20;97.50;;;;;;5063988;28;20029;-71
2021/10/08 12:26:42;;;;;;;19.92;12.18;;;13.30;97.40;;;;;;5058349;28;20029;-69
2021/10/08 12:29:10;;;;;;;17.58;12.55;;;13.10;97.50;;;;;;5066437;28;20104;-70
2021/10/08 12:31:51;;;;;;;18.85;12.00;;;12.90;97.80;;;;;;5078328;28;20021;-70
2021/10/08 12:34:38;;;;;;;19.85;11.68;;;13.00;98.00;;;;;;5077955;28;20352;-68
2021/10/08 12:37:10;;;;;;;21.33;12.90;;;13.20;98.00;;;;;;5078244;28;20028;-70
2021/10/08 12:39:40;;;;;;;17.27;12.32;;;13.30;97.70;;;;;;5074875;28;20025;-70
2021/10/08 12:42:19;;;;;;;21.23;12.45;;;13.20;97.60;;;;;;5078279;28;20028;-70
2021/10/08 12:45:05;;;;;;;22.95;12.52;;;13.30;97.60;;;;;;5077784;28;20029;-70
2021/10/08 12:47:40;;;;;;;19.15;11.10;;;13.10;97.80;;;;;;5076906;28;20448;-71
2021/10/08 12:50:07;;;;;;;20.48;12.63;;;13.10;98.00;;;;;;5077943;28;20032;-70
2021/10/08 12:52:48;;;;;;;18.05;11.43;;;13.20;97.80;;;;;;5076703;28;20032;-70